Time;durP1;ratioP1;P1;durP2;ratioP2;P2;SDS_P1;SDS_P2;PMS_P1;PMS_P2;Temp;Humidity;BMP_temperature;BMP_pressure;BME280_temperature;BME280_humidity;BME280_pressure;Samples;Min_cycle;Max_cycle;Signal;HPM_P1;HPM_P2
2023/01/05 00:00:08;;;;;;;13.20;6.10;;;;;;;0.57;82.43;99412.23;106663;1298;22357;-57
2023/01/05 00:02:38;;;;;;;13.70;6.60;;;;;;;0.56;82.65;99414.95;106655;1306;22175;-57
2023/01/05 00:05:05;;;;;;;;;;;;;;;0.57;82.36;99418.88;106630;1290;138339;-57
2023/01/05 00:07:31;;;;;;;9.40;5.50;;;;;;;0.57;82.64;99410.21;106635;1303;22287;-57
2023/01/05 00:09:58;;;;;;;11.50;5.50;;;;;;;0.57;82.54;99397.14;106453;1306;138040;-57
2023/01/05 00:23:26;;;;;;;10.50;5.50;;;;;;;0.63;82.66;99364.30;106613;1303;22364;-57
2023/01/05 00:25:53;;;;;;;16.50;5.80;;;;;;;0.63;82.53;99357.41;106663;1303;22143;-57
2023/01/05 00:28:20;;;;;;;12.00;6.80;;;;;;;0.63;82.77;99348.79;106530;1306;138247;-57
2023/01/05 00:30:46;;;;;;;13.00;6.10;;;;;;;0.65;82.61;99341.13;106543;1303;22196;-58
2023/01/05 00:33:14;;;;;;;15.40;7.30;;;;;;;0.66;82.83;99335.38;106545;1302;139004;-57
2023/01/05 00:35:41;;;;;;;15.70;8.00;;;;;;;0.67;82.56;99324.11;106596;1304;22106;-57
2023/01/05 00:38:08;;;;;;;;;;;;;;;0.67;82.47;99318.50;106545;1303;22360;-57
2023/01/05 00:40:37;;;;;;;11.40;5.90;;;;;;;0.66;82.66;99310.73;106532;1303;126167;-58
2023/01/05 00:43:04;;;;;;;;;;;;;;;0.66;82.62;99303.57;106710;1295;22363;-58
2023/01/05 00:45:30;;;;;;;10.70;6.30;;;;;;;0.65;82.78;99291.47;106549;1305;125296;-58
2023/01/05 00:47:57;;;;;;;10.30;5.60;;;;;;;0.63;82.71;99288.12;106474;1305;22138;-58
2023/01/05 00:50:24;;;;;;;9.60;5.50;;;;;;;0.63;82.95;99284.89;106549;1304;22240;-58
2023/01/05 00:52:51;;;;;;;11.50;5.90;;;;;;;0.62;82.91;99272.90;106445;1305;138178;-58
2023/01/05 00:55:17;;;;;;;;;;;;;;;0.62;83.04;99274.13;106533;1305;22366;-58
2023/01/05 00:57:45;;;;;;;11.60;6.90;;;;;;;0.63;83.05;99271.08;106522;1303;125646;-58
2023/01/05 01:00:17;;;;;;;16.10;6.70;;;;;;;0.65;83.19;99262.23;106692;1303;22124;-58
2023/01/05 01:02:44;;;;;;;12.20;5.70;;;;;;;0.68;83.32;99243.89;106662;1303;22145;-58
2023/01/05 01:05:11;;;;;;;10.70;5.80;;;;;;;0.70;83.33;99236.81;106615;1303;139096;-58
2023/01/05 01:07:37;;;;;;;10.70;5.80;;;;;;;0.72;83.26;99225.05;106688;1303;23002;-58
2023/01/05 01:10:05;;;;;;;10.10;5.30;;;;;;;0.75;83.22;99217.53;106639;1303;138378;-58
2023/01/05 01:12:32;;;;;;;10.90;6.20;;;;;;;0.76;83.15;99213.59;106668;1296;22912;-58
2023/01/05 01:14:58;;;;;;;10.20;5.20;;;;;;;0.77;83.26;99209.91;106637;1295;139129;-58
2023/01/05 01:17:25;;;;;;;;;;;;;;;0.77;83.30;99199.20;106766;1296;22354;-59
2023/01/05 01:19:52;;;;;;;11.80;6.30;;;;;;;0.80;83.18;99208.31;106708;1303;22149;-58
2023/01/05 01:22:19;;;;;;;12.00;7.10;;;;;;;0.81;83.31;99204.08;106637;1303;138113;-58
2023/01/05 01:24:45;;;;;;;10.00;7.00;;;;;;;0.82;83.21;99192.79;106761;1303;22135;-58
2023/01/05 01:27:12;;;;;;;12.80;6.70;;;;;;;0.83;83.31;99192.11;106619;1303;138291;-58
2023/01/05 01:29:39;;;;;;;;;;;;;;;0.84;83.31;99182.71;106717;1302;22324;-58
2023/01/05 01:32:06;;;;;;;17.70;7.50;;;;;;;0.84;83.40;99169.85;106714;1295;22143;-58
2023/01/05 01:34:33;;;;;;;14.00;7.50;;;;;;;0.85;83.33;99162.09;106594;1303;138800;-58
2023/01/05 01:36:59;;;;;;;;;;;;;;;0.85;83.45;99147.95;106669;1305;23126;-58
2023/01/05 01:39:34;;;;;;;14.10;6.70;;;;;;;0.85;83.42;99143.13;106548;1306;125271;-58
2023/01/05 01:42:05;;;;;;;12.50;7.20;;;;;;;0.83;83.52;99128.84;106661;1298;23261;-58
2023/01/05 01:44:57;;;;;;;12.00;6.50;;;;;;;0.84;83.51;99129.09;106634;1303;22297;-58
2023/01/05 01:47:43;;;;;;;15.10;7.60;;;;;;;0.85;83.61;99118.65;106378;1292;22123;-58
2023/01/05 01:50:23;;;;;;;11.20;7.10;;;;;;;0.85;83.65;99101.61;106456;1290;22336;-58
2023/01/05 01:52:51;;;;;;;12.30;7.10;;;;;;;0.85;83.66;99094.84;106610;1303;138316;-58
2023/01/05 01:55:18;;;;;;;20.50;7.50;;;;;;;0.87;83.63;99088.06;106513;1304;22197;-58
2023/01/05 01:57:45;;;;;;;;;;;;;;;0.89;83.77;99075.43;106612;1303;139025;-58
2023/01/05 02:00:13;;;;;;;9.30;6.50;;;;;;;0.91;83.89;99061.48;106689;1303;22097;-58
2023/01/05 02:02:45;;;;;;;13.80;7.90;;;;;;;0.91;83.75;99044.73;106732;1303;23009;-58
2023/01/05 02:05:13;;;;;;;11.80;6.60;;;;;;;0.91;83.82;99037.11;106479;1296;139422;-58
2023/01/05 02:07:43;;;;;;;18.10;7.90;;;;;;;0.93;83.88;99028.61;106537;1303;22156;-58
2023/01/05 02:10:11;;;;;;;14.50;7.50;;;;;;;0.95;83.94;99028.06;106635;1303;139558;-58
2023/01/05 02:12:56;;;;;;;;;;;;;;;0.96;83.90;99019.12;106628;1291;22342;-58
2023/01/05 02:15:29;;;;;;;10.40;6.40;;;;;;;0.97;83.87;99012.15;106600;1303;126559;-58
2023/01/05 02:18:28;;;;;;;14.90;7.50;;;;;;;0.98;83.92;99002.00;106499;1303;22127;-58
2023/01/05 02:21:13;;;;;;;12.20;6.80;;;;;;;0.98;83.91;98995.73;106649;1303;22167;-58
2023/01/05 02:24:05;;;;;;;10.50;6.70;;;;;;;0.98;83.87;98981.98;106570;1301;22284;-58
2023/01/05 02:26:51;;;;;;;9.60;6.70;;;;;;;0.99;83.96;98988.30;106597;1297;22199;-57
2023/01/05 02:29:37;;;;;;;13.50;6.90;;;;;;;1.00;84.00;98979.83;106494;1303;137963;-57
2023/01/05 02:32:03;;;;;;;10.80;6.20;;;;;;;1.01;83.85;98970.08;106734;1303;22145;-58
2023/01/05 02:34:45;;;;;;;8.90;6.00;;;;;;;1.02;84.00;98971.52;106567;1304;138579;-58
2023/01/05 02:37:16;;;;;;;9.30;6.30;;;;;;;1.05;83.99;98970.32;106603;1303;23419;-58
2023/01/05 02:39:56;;;;;;;10.40;6.20;;;;;;;1.06;84.07;98970.81;106561;1302;138331;-58
2023/01/05 02:42:24;;;;;;;13.30;6.40;;;;;;;1.08;84.12;98965.45;106536;1303;22915;-58
2023/01/05 02:44:52;;;;;;;10.60;6.50;;;;;;;1.10;83.97;98966.07;106594;1306;23134;-58
2023/01/05 02:47:26;;;;;;;10.40;6.10;;;;;;;1.12;84.02;98960.86;106564;1298;138637;-58
2023/01/05 02:50:18;;;;;;;14.50;6.30;;;;;;;1.12;83.95;98951.87;106576;1303;22147;-58
2023/01/05 02:53:07;;;;;;;13.20;7.70;;;;;;;1.14;83.97;98943.36;106588;1303;138642;-58
2023/01/05 02:55:37;;;;;;;16.50;7.70;;;;;;;1.15;84.01;98932.45;106687;1303;22170;-58
2023/01/05 02:58:08;;;;;;;12.70;6.70;;;;;;;1.15;83.98;98931.17;106576;1303;139253;-58
2023/01/05 03:00:41;;;;;;;11.70;7.10;;;;;;;1.16;84.02;98922.86;106626;1303;22128;-58
2023/01/05 03:03:24;;;;;;;11.60;6.90;;;;;;;1.16;84.10;98919.75;106564;1297;137809;-58
2023/01/05 03:05:54;;;;;;;13.10;7.10;;;;;;;1.18;84.23;98909.48;106649;1303;22136;-58
2023/01/05 03:08:22;;;;;;;12.10;7.00;;;;;;;1.19;84.23;98900.06;106633;1303;22161;-58
2023/01/05 03:13:58;;;;;;;11.70;6.80;;;;;;;1.23;84.16;98874.91;106548;1305;22111;-58
2023/01/05 03:16:28;;;;;;;11.50;6.80;;;;;;;1.24;84.27;98865.02;106415;1303;137749;-58
2023/01/05 03:35:37;;;;;;;14.70;7.80;;;;;;;1.24;85.34;98813.69;106399;1305;22113;-57
2023/01/05 03:38:13;;;;;;;12.00;7.10;;;;;;;1.24;85.43;98811.22;106555;1305;22130;-57
2023/01/05 03:40:44;;;;;;;13.60;7.40;;;;;;;1.22;85.64;98802.48;106393;1303;137917;-57
2023/01/05 03:43:11;;;;;;;12.40;7.30;;;;;;;1.22;85.83;98791.41;106624;1303;22369;-57
2023/01/05 03:45:49;;;;;;;12.70;7.70;;;;;;;1.19;86.04;98788.04;106542;1303;138366;-57
2023/01/05 03:48:19;;;;;;;13.20;7.50;;;;;;;1.16;86.21;98778.20;106527;1303;22306;-56
2023/01/05 03:50:46;;;;;;;14.80;8.70;;;;;;;1.16;86.51;98773.00;106557;1303;22159;-56
2023/01/05 03:53:13;;;;;;;14.90;8.40;;;;;;;1.15;86.77;98765.95;106609;1303;138151;-56
2023/01/05 03:55:42;;;;;;;14.00;9.10;;;;;;;1.14;86.86;98757.50;106644;1304;22314;-56
2023/01/05 03:58:08;;;;;;;;;;;;;;;1.14;87.22;98754.08;106486;1303;139899;-56
2023/01/05 04:00:39;;;;;;;15.30;7.90;;;;;;;1.13;87.51;98742.61;106638;1303;22107;-56
2023/01/05 04:03:07;;;;;;;15.20;8.50;;;;;;;1.15;87.74;98743.23;106636;1303;22123;-56
2023/01/05 04:05:35;;;;;;;14.60;8.00;;;;;;;1.16;87.78;98735.98;106715;1303;22122;-56
2023/01/05 04:08:02;;;;;;;14.50;8.30;;;;;;;1.16;88.10;98732.33;106593;1304;22148;-56
2023/01/05 04:10:31;;;;;;;13.20;8.60;;;;;;;1.17;88.24;98728.61;106503;1303;138264;-56
2023/01/05 04:12:58;;;;;;;13.20;8.10;;;;;;;1.17;88.52;98720.15;106618;1303;22120;-56
2023/01/05 04:15:25;;;;;;;12.80;7.10;;;;;;;1.17;88.71;98715.52;106545;1303;139571;-56
2023/01/05 04:17:52;;;;;;;13.00;7.70;;;;;;;1.18;89.02;98711.64;106587;1303;22102;-56
2023/01/05 04:20:19;;;;;;;10.40;7.50;;;;;;;1.18;89.14;98709.74;106676;1303;22167;-56
2023/01/05 04:22:46;;;;;;;13.70;8.10;;;;;;;1.17;89.34;98699.80;106494;1303;138200;-56
2023/01/05 04:25:16;;;;;;;13.60;8.60;;;;;;;1.16;89.45;98680.89;106734;1300;22094;-56
2023/01/05 04:27:42;;;;;;;13.80;9.20;;;;;;;1.15;89.78;98668.35;106557;1303;137991;-56
2023/01/05 04:30:10;;;;;;;14.50;9.30;;;;;;;1.12;90.02;98659.75;106665;1303;22248;-56
2023/01/05 04:32:37;;;;;;;12.50;8.40;;;;;;;1.11;90.31;98648.52;106938;1295;22147;-57
2023/01/05 04:35:04;;;;;;;15.20;9.10;;;;;;;1.11;90.40;98637.55;106656;1302;138324;-56
2023/01/05 04:37:38;;;;;;;15.30;9.30;;;;;;;1.11;90.57;98635.36;106718;1302;22619;-56
2023/01/05 04:40:06;;;;;;;14.20;9.30;;;;;;;1.12;90.83;98634.45;106588;1292;138142;-56
2023/01/05 04:42:40;;;;;;;14.20;8.40;;;;;;;1.12;91.04;98624.91;106759;1300;23236;-56
2023/01/05 04:45:07;;;;;;;14.30;8.60;;;;;;;1.14;91.38;98611.11;106776;1285;22771;-57
2023/01/05 04:47:34;;;;;;;15.70;9.00;;;;;;;1.15;91.57;98616.42;106759;1302;22267;-56
2023/01/05 04:50:03;;;;;;;15.60;9.60;;;;;;;1.17;91.78;98601.29;106704;1294;23068;-56
2023/01/05 04:52:30;;;;;;;18.30;10.40;;;;;;;1.19;91.86;98599.74;106598;1302;138449;-56
2023/01/05 04:54:57;;;;;;;21.00;9.90;;;;;;;1.19;92.15;98609.61;106609;1302;22215;-57
2023/01/05 04:57:25;;;;;;;13.40;8.80;;;;;;;1.20;92.31;98585.83;106518;1302;137817;-57
2023/01/05 04:59:52;;;;;;;12.90;8.80;;;;;;;1.22;92.51;98590.84;106795;1302;22134;-57
2023/01/05 05:02:18;;;;;;;18.70;9.40;;;;;;;1.24;92.71;98586.66;106769;1302;22144;-56
2023/01/05 05:04:47;;;;;;;15.30;9.50;;;;;;;1.24;92.92;98578.41;106529;1302;138061;-57
2023/01/05 05:07:15;;;;;;;12.20;8.70;;;;;;;1.28;93.16;98577.55;106639;1303;22123;-57
2023/01/05 05:09:42;;;;;;;;;;;;;;;1.29;93.18;98573.58;106505;1296;138565;-57
2023/01/05 05:12:09;;;;;;;11.90;8.30;;;;;;;1.31;93.43;98572.95;106791;1295;21900;-57
2023/01/05 05:14:36;;;;;;;17.70;10.50;;;;;;;1.32;93.62;98560.02;106765;1300;22198;-57
2023/01/05 05:17:04;;;;;;;12.20;9.80;;;;;;;1.35;93.84;98553.20;106658;1300;139832;-57
2023/01/05 05:19:31;;;;;;;18.40;9.40;;;;;;;1.37;94.20;98548.54;106763;1301;22425;-57
2023/01/05 05:21:58;;;;;;;15.10;9.70;;;;;;;1.40;94.33;98546.46;106715;1293;138214;-57
2023/01/05 05:24:25;;;;;;;13.60;8.90;;;;;;;1.41;94.51;98542.81;106876;1300;22262;-57
2023/01/05 05:26:52;;;;;;;15.40;9.50;;;;;;;1.45;94.77;98546.83;106794;1294;22155;-57
2023/01/05 05:29:18;;;;;;;11.20;8.70;;;;;;;1.47;94.91;98538.44;106776;1300;137907;-57
2023/01/05 05:31:45;;;;;;;14.00;8.30;;;;;;;1.49;95.03;98537.10;106947;1300;22184;-57
2023/01/05 05:34:12;;;;;;;;;;;;;;;1.51;95.09;98521.34;106795;1300;138380;-57
2023/01/05 05:36:38;;;;;;;14.30;8.70;;;;;;;1.52;95.26;98519.89;106927;1300;22136;-59
2023/01/05 05:39:07;;;;;;;13.90;9.40;;;;;;;1.55;95.48;98515.98;106952;1300;22234;-57
2023/01/05 05:41:34;;;;;;;13.30;9.00;;;;;;;1.57;95.45;98512.25;106680;1294;23040;-58
2023/01/05 05:44:01;;;;;;;14.20;9.20;;;;;;;1.58;95.60;98507.93;106877;1300;22318;-58
2023/01/05 05:46:28;;;;;;;12.00;8.30;;;;;;;1.59;95.71;98504.98;106826;1300;139145;-57
2023/01/05 05:48:55;;;;;;;12.10;8.90;;;;;;;1.62;95.89;98494.77;106857;1303;22158;-58
2023/01/05 05:51:22;;;;;;;14.00;8.80;;;;;;;1.66;95.96;98486.98;106850;1300;137919;-58
2023/01/05 05:53:50;;;;;;;16.10;10.10;;;;;;;1.68;96.19;98470.51;106648;1280;139675;-58
2023/01/05 05:57:42;;;;;;;12.20;9.60;;;;;;;1.72;96.19;98456.70;99513;1328;545423;-57
2023/01/05 06:00:10;;;;;;;13.10;8.60;;;;;;;1.71;96.30;98456.60;101031;1301;22688;-57
2023/01/05 06:02:39;;;;;;;14.30;9.70;;;;;;;1.72;96.40;98449.15;100976;1317;22976;-57
2023/01/05 06:05:07;;;;;;;14.80;9.90;;;;;;;1.73;96.48;98443.73;100935;1308;138026;-57
2023/01/05 06:07:34;;;;;;;14.50;9.70;;;;;;;1.74;96.59;98435.33;105715;1306;22968;-57
2023/01/05 06:10:01;;;;;;;15.00;9.20;;;;;;;1.77;96.87;98435.17;105452;1315;137712;-59
2023/01/05 06:12:28;;;;;;;14.70;10.30;;;;;;;1.79;96.93;98428.55;105689;1313;138114;-57
2023/01/05 06:14:54;;;;;;;15.40;9.70;;;;;;;1.82;97.10;98422.16;106151;1312;22349;-58
2023/01/05 06:17:21;;;;;;;14.90;10.30;;;;;;;1.84;97.18;98424.69;106033;1312;138164;-59
2023/01/05 06:19:48;;;;;;;12.10;8.90;;;;;;;1.86;97.19;98424.96;106160;1310;22164;-57
2023/01/05 06:22:15;;;;;;;13.10;9.50;;;;;;;1.88;97.41;98419.25;106396;1298;139112;-57
2023/01/05 06:24:41;;;;;;;14.20;9.50;;;;;;;1.90;97.55;98420.16;106454;1305;22152;-57
2023/01/05 06:27:09;;;;;;;14.40;9.80;;;;;;;1.92;97.64;98412.61;106491;1306;22170;-57
2023/01/05 06:29:36;;;;;;;18.30;11.50;;;;;;;1.96;97.69;98407.27;106482;1306;23693;-57
2023/01/05 06:32:03;;;;;;;;;;;;;;;1.98;97.80;98410.84;106511;1297;22451;-57
2023/01/05 06:34:30;;;;;;;17.30;10.00;;;;;;;2.01;97.90;98405.00;106344;1299;127490;-57
2023/01/05 06:36:56;;;;;;;14.40;10.20;;;;;;;2.03;98.17;98402.89;106503;1305;23385;-57
2023/01/05 06:39:28;;;;;;;13.40;9.90;;;;;;;2.06;98.15;98394.54;106360;1306;137914;-57
2023/01/05 06:41:54;;;;;;;15.40;10.10;;;;;;;2.10;98.16;98390.43;106510;1306;22119;-57
2023/01/05 06:44:21;;;;;;;15.90;9.80;;;;;;;2.12;98.48;98385.39;106486;1298;22148;-57
2023/01/05 06:46:48;;;;;;;13.90;9.90;;;;;;;2.16;98.45;98387.63;106353;1307;139325;-57
2023/01/05 06:49:15;;;;;;;15.90;10.10;;;;;;;2.20;98.58;98384.85;106448;1298;22326;-57
2023/01/05 06:51:41;;;;;;;;;;;;;;;2.24;98.76;98383.59;106406;1306;138639;-57
2023/01/05 06:54:08;;;;;;;11.20;7.90;;;;;;;2.28;98.79;98380.55;106485;1306;22083;-57
2023/01/05 06:56:35;;;;;;;14.00;9.10;;;;;;;2.31;99.01;98366.39;106494;1306;22267;-57
2023/01/05 06:59:01;;;;;;;12.00;8.50;;;;;;;2.35;98.97;98359.95;106425;1306;138684;-57
2023/01/05 07:01:28;;;;;;;12.60;8.60;;;;;;;2.38;98.94;98361.77;106493;1306;22144;-57
2023/01/05 07:03:55;;;;;;;16.60;9.60;;;;;;;2.41;99.04;98365.27;106392;1306;138426;-57
2023/01/05 07:06:22;;;;;;;;;;;;;;;2.45;99.08;98361.11;106504;1306;22334;-57
2023/01/05 07:08:49;;;;;;;14.90;8.60;;;;;;;2.46;99.01;98349.20;106471;1306;22219;-57
2023/01/05 07:11:15;;;;;;;14.60;10.40;;;;;;;2.48;99.30;98342.21;106370;1306;138236;-57
2023/01/05 07:13:46;;;;;;;15.20;10.30;;;;;;;2.51;99.26;98330.98;106443;1306;22171;-57
2023/01/05 07:16:13;;;;;;;15.40;10.20;;;;;;;2.53;99.23;98327.59;106360;1304;138265;-56
2023/01/05 07:18:40;;;;;;;15.20;10.10;;;;;;;2.55;99.24;98327.96;106449;1290;22340;-56
2023/01/05 07:21:06;;;;;;;15.60;10.30;;;;;;;2.58;99.36;98329.36;106491;1306;22315;-56
2023/01/05 07:23:36;;;;;;;14.20;9.80;;;;;;;2.59;99.33;98324.50;106364;1305;138185;-56
2023/01/05 07:26:07;;;;;;;16.20;10.20;;;;;;;2.60;99.43;98317.52;106511;1306;23334;-56
2023/01/05 07:28:34;;;;;;;14.50;9.30;;;;;;;2.62;99.50;98316.85;106344;1301;138789;-56
2023/01/05 07:31:01;;;;;;;17.50;9.40;;;;;;;2.65;99.53;98299.27;106475;1291;22145;-57
2023/01/05 07:33:28;;;;;;;;;;;;;;;2.66;99.54;98294.90;106412;1298;138311;-57
2023/01/05 07:35:54;;;;;;;22.60;14.00;;;;;;;2.67;99.62;98311.05;106439;1305;22277;-56
2023/01/05 07:38:21;;;;;;;23.90;14.40;;;;;;;2.69;99.79;98298.90;106513;1300;22210;-56
2023/01/05 07:40:48;;;;;;;18.20;11.30;;;;;;;2.71;99.73;98301.59;106383;1306;140052;-57
2023/01/05 07:43:15;;;;;;;15.50;10.00;;;;;;;2.74;99.86;98292.48;106495;1306;22516;-56
2023/01/05 07:45:42;;;;;;;14.90;9.10;;;;;;;2.77;99.85;98289.25;106396;1306;141285;-57
2023/01/05 07:48:09;;;;;;;19.20;11.40;;;;;;;2.80;99.99;98283.85;106513;1305;23427;-57
2023/01/05 07:50:36;;;;;;;17.10;11.50;;;;;;;2.85;100.00;98279.54;106483;1306;22255;-57
2023/01/05 07:53:02;;;;;;;18.80;11.60;;;;;;;2.90;100.00;98273.77;106261;1290;139394;-57
2023/01/05 07:55:29;;;;;;;17.10;11.50;;;;;;;2.95;100.00;98272.17;106522;1306;23455;-57
2023/01/05 07:57:56;;;;;;;18.80;12.50;;;;;;;2.99;100.00;98274.05;106405;1306;138036;-57
2023/01/05 08:00:22;;;;;;;15.30;10.20;;;;;;;3.03;100.00;98259.11;106493;1306;22811;-57
2023/01/05 08:02:49;;;;;;;13.90;9.50;;;;;;;3.07;100.00;98271.07;106515;1298;22113;-57
2023/01/05 08:05:16;;;;;;;17.90;10.90;;;;;;;3.10;100.00;98276.52;106383;1306;138290;-57
2023/01/05 08:07:43;;;;;;;;;;;;;;;3.13;100.00;98278.03;106489;1306;22333;-57
2023/01/05 08:10:28;;;;;;;16.60;10.60;;;;;;;3.15;99.99;98264.41;106413;1303;123996;-57
2023/01/05 08:15:45;;;;;;;15.90;8.90;;;;;;;3.19;100.00;98257.47;106340;1306;138704;-57
2023/01/05 08:18:17;;;;;;;12.10;8.60;;;;;;;3.23;100.00;98254.09;106450;1306;22805;-57
2023/01/05 08:20:57;;;;;;;17.40;9.60;;;;;;;3.25;100.00;98251.66;106463;1305;22905;-57
2023/01/05 08:23:25;;;;;;;13.20;9.00;;;;;;;3.31;99.93;98240.63;106395;1306;139566;-57
2023/01/05 08:25:53;;;;;;;14.10;8.70;;;;;;;3.35;100.00;98241.02;106507;1306;22141;-57
2023/01/05 08:28:20;;;;;;;18.10;10.80;;;;;;;3.41;99.97;98239.50;106366;1299;137732;-57
2023/01/05 08:30:46;;;;;;;17.50;10.00;;;;;;;3.46;100.00;98234.48;106468;1305;22202;-57
2023/01/05 08:33:13;;;;;;;14.00;9.30;;;;;;;3.52;99.85;98227.14;106355;1306;139091;-57
2023/01/05 08:35:41;;;;;;;14.40;9.20;;;;;;;3.56;99.76;98221.41;106457;1297;22233;-57
2023/01/05 08:38:07;;;;;;;13.20;8.30;;;;;;;3.61;99.93;98219.26;106499;1305;22323;-57
2023/01/05 08:40:37;;;;;;;13.50;8.40;;;;;;;3.66;99.53;98217.94;106376;1293;139719;-57
2023/01/05 08:43:04;;;;;;;15.50;9.90;;;;;;;3.70;99.56;98217.63;106477;1306;22134;-57
2023/01/05 08:45:31;;;;;;;19.70;10.80;;;;;;;3.71;99.14;98213.25;106290;1305;138205;-57
2023/01/05 08:48:00;;;;;;;17.20;10.90;;;;;;;3.75;99.20;98205.52;106471;1305;22150;-57
2023/01/05 08:50:27;;;;;;;12.40;9.50;;;;;;;3.79;98.89;98207.04;106426;1306;22090;-57
2023/01/05 08:52:53;;;;;;;13.50;8.90;;;;;;;3.81;98.70;98201.05;106347;1306;138445;-57
2023/01/05 08:55:20;;;;;;;14.30;8.50;;;;;;;3.84;98.56;98199.69;106313;1302;22120;-57
2023/01/05 08:57:47;;;;;;;14.30;9.30;;;;;;;3.86;98.48;98193.96;106363;1306;138350;-57
2023/01/05 09:00:16;;;;;;;11.20;7.40;;;;;;;3.88;98.31;98189.63;106477;1293;22221;-57
2023/01/05 09:02:43;;;;;;;11.50;8.10;;;;;;;3.91;98.34;98187.71;106458;1298;22970;-57
2023/01/05 09:05:10;;;;;;;11.60;7.80;;;;;;;3.94;98.47;98180.48;106391;1305;138206;-56
2023/01/05 09:07:37;;;;;;;12.70;7.90;;;;;;;3.97;98.41;98169.21;106466;1306;22199;-56
2023/01/05 09:10:05;;;;;;;10.70;7.30;;;;;;;3.99;98.38;98161.38;106358;1291;139630;-56
2023/01/05 09:12:34;;;;;;;14.00;7.50;;;;;;;4.03;98.10;98164.13;106504;1300;22178;-56
2023/01/05 09:15:01;;;;;;;13.60;9.00;;;;;;;4.06;98.15;98152.24;106426;1305;22142;-57
2023/01/05 09:17:28;;;;;;;11.40;7.30;;;;;;;4.09;98.28;98147.27;106391;1306;137558;-57
2023/01/05 09:19:54;;;;;;;;;;;;;;;4.13;97.88;98143.65;106525;1296;22421;-56
2023/01/05 09:22:21;;;;;;;12.50;7.40;;;;;;;4.15;98.16;98142.46;106388;1306;126759;-56
2023/01/05 09:24:48;;;;;;;12.30;8.40;;;;;;;4.19;98.02;98139.48;106499;1291;23323;-57
2023/01/05 09:27:15;;;;;;;12.10;7.10;;;;;;;4.21;97.63;98130.50;106376;1306;138290;-58
2023/01/05 09:29:41;;;;;;;;;;;;;;;4.26;97.88;98130.78;106513;1290;22339;-57
2023/01/05 09:32:10;;;;;;;13.90;8.90;;;;;;;4.30;97.71;98128.29;106521;1306;22189;-57
2023/01/05 09:34:37;;;;;;;17.70;8.40;;;;;;;4.32;97.75;98118.71;106358;1305;138184;-57
2023/01/05 09:37:03;;;;;;;;;;;;;;;4.34;97.84;98118.52;106479;1306;22399;-58
2023/01/05 09:39:30;;;;;;;20.60;10.10;;;;;;;4.37;97.68;98109.27;106394;1297;124061;-58
2023/01/05 09:41:59;;;;;;;23.40;12.00;;;;;;;4.40;97.35;98106.83;106472;1306;22191;-59
2023/01/05 09:44:40;;;;;;;22.70;12.10;;;;;;;4.42;97.32;98108.80;106425;1306;22359;-59
2023/01/05 09:47:17;;;;;;;15.70;9.90;;;;;;;4.44;97.31;98102.80;106311;1306;137845;-56
2023/01/05 09:49:45;;;;;;;11.30;7.60;;;;;;;4.47;97.23;98101.30;106398;1306;22158;-68
2023/01/05 09:52:12;;;;;;;10.30;7.30;;;;;;;4.49;97.22;98093.55;106328;1306;137637;-59
2023/01/05 09:54:39;;;;;;;16.30;6.90;;;;;;;4.52;97.17;98088.24;106421;1297;22584;-59
2023/01/05 09:57:12;;;;;;;9.30;5.90;;;;;;;4.54;97.25;98083.09;106463;1305;22205;-61
2023/01/05 09:59:44;;;;;;;8.50;5.80;;;;;;;4.55;97.10;98081.27;106375;1306;23290;-61
2023/01/05 10:02:24;;;;;;;8.50;5.60;;;;;;;4.56;97.35;98079.34;106472;1306;22091;-61
2023/01/05 10:04:50;;;;;;;10.00;6.70;;;;;;;4.57;97.41;98071.80;106394;1306;138319;-60
2023/01/05 10:07:20;;;;;;;;;;;;;;;4.57;97.30;98068.30;106445;1306;23236;-60
2023/01/05 10:09:47;;;;;;;15.40;9.20;;;;;;;4.58;97.39;98059.18;106424;1290;124790;-60
2023/01/05 10:15:12;;;;;;;12.10;7.00;;;;;;;4.60;97.81;98053.23;106473;1306;23272;-60
2023/01/05 10:17:40;;;;;;;10.70;6.40;;;;;;;4.61;97.69;98056.30;106429;1306;22332;-60
2023/01/05 10:20:22;;;;;;;9.10;6.10;;;;;;;4.63;97.73;98052.48;106478;1306;22130;-59
2023/01/05 10:23:29;;;;;;;11.10;6.60;;;;;;;4.66;98.11;98051.31;106339;1307;137459;-62
2023/01/05 10:26:30;;;;;;;10.20;6.30;;;;;;;4.68;98.28;98045.84;106364;1306;22403;-62
2023/01/05 10:29:21;;;;;;;7.80;6.00;;;;;;;4.69;98.23;98037.87;105558;1314;137864;-62
2023/01/05 10:31:55;;;;;;;9.40;5.20;;;;;;;4.69;98.40;98031.82;105725;1314;22262;-62
2023/01/05 10:34:27;;;;;;;7.90;5.40;;;;;;;4.73;98.63;98028.52;105533;1315;137579;-62
2023/01/05 10:37:33;;;;;;;9.00;5.80;;;;;;;4.75;98.43;98024.59;105744;1314;22334;-63
2023/01/05 10:40:02;;;;;;;11.10;5.60;;;;;;;4.77;98.32;98015.48;103975;1314;138681;-58
2023/01/05 10:42:51;;;;;;;7.30;5.10;;;;;;;4.79;98.69;98015.23;101046;1302;22541;-58
2023/01/05 10:45:18;;;;;;;7.80;5.50;;;;;;;4.80;98.60;98013.40;105278;1321;138458;-59
2023/01/05 10:47:45;;;;;;;;;;;;;;;4.80;98.76;98016.91;105816;1313;22405;-59
2023/01/05 10:50:38;;;;;;;9.10;5.40;;;;;;;4.83;98.65;98009.00;105703;1314;22197;-59
2023/01/05 10:53:10;;;;;;;6.20;4.60;;;;;;;4.83;99.00;98009.21;105521;1306;137500;-59
2023/01/05 10:55:43;;;;;;;6.90;4.40;;;;;;;4.85;98.99;98003.04;105662;1314;22348;-60
2023/01/05 10:58:40;;;;;;;7.20;4.20;;;;;;;4.87;99.00;98000.73;105631;1313;137995;-60
2023/01/05 11:01:23;;;;;;;10.70;7.20;;;;;;;4.89;98.94;97997.77;104882;1323;22265;-59
2023/01/05 11:03:55;;;;;;;6.90;5.20;;;;;;;4.92;99.10;97996.92;104907;1320;137971;-59
2023/01/05 11:06:42;;;;;;;7.00;4.20;;;;;;;4.95;99.39;97992.80;105543;1305;22165;-59
2023/01/05 11:09:14;;;;;;;7.10;4.70;;;;;;;4.98;99.20;97990.50;105803;1309;22463;-60
2023/01/05 11:11:56;;;;;;;6.10;4.40;;;;;;;5.01;99.11;97990.90;105860;1314;23327;-59
2023/01/05 11:14:23;;;;;;;6.30;4.20;;;;;;;5.05;99.08;97987.31;105817;1306;22222;-60
2023/01/05 11:16:52;;;;;;;10.00;5.20;;;;;;;5.07;99.14;97984.17;105674;1302;137635;-59
2023/01/05 11:19:27;;;;;;;6.70;4.40;;;;;;;5.09;99.55;97979.77;105559;1314;23230;-59
2023/01/05 11:21:53;;;;;;;6.50;3.90;;;;;;;5.13;99.07;97979.59;105628;1314;137916;-60
2023/01/05 11:24:33;;;;;;;6.40;4.10;;;;;;;5.15;99.01;97975.02;105844;1309;22204;-60
2023/01/05 11:27:25;;;;;;;6.10;3.80;;;;;;;5.18;99.15;97974.66;105856;1306;22299;-59
2023/01/05 11:30:23;;;;;;;7.80;3.30;;;;;;;5.22;99.02;97972.94;105691;1314;22226;-59
2023/01/05 11:32:50;;;;;;;6.30;4.20;;;;;;;5.25;99.22;97972.90;105134;1320;22442;-60
2023/01/05 11:35:36;;;;;;;6.50;4.10;;;;;;;5.28;99.14;97972.17;104873;1321;138185;-59
2023/01/05 11:38:03;;;;;;;5.50;3.80;;;;;;;5.30;98.62;97968.80;105221;1305;22191;-62
2023/01/05 11:40:31;;;;;;;8.20;4.20;;;;;;;5.33;98.86;97965.45;105703;1314;137629;-65
2023/01/05 11:42:58;;;;;;;6.00;4.40;;;;;;;5.35;98.70;97963.88;105749;1314;23442;-65
2023/01/05 11:45:27;;;;;;;7.20;4.20;;;;;;;5.37;98.77;97956.16;105638;1314;138338;-65
2023/01/05 11:47:55;;;;;;;6.20;3.80;;;;;;;5.39;98.66;97956.18;105651;1314;23306;-65
2023/01/05 11:50:26;;;;;;;4.80;3.50;;;;;;;5.41;98.59;97956.23;105664;1314;22347;-65
2023/01/05 11:52:54;;;;;;;6.30;3.40;;;;;;;5.43;98.51;97952.10;105376;1314;138581;-65
2023/01/05 11:55:34;;;;;;;7.10;4.00;;;;;;;5.45;98.34;97954.70;105712;1314;22182;-65
2023/01/05 11:58:16;;;;;;;5.60;4.00;;;;;;;5.46;98.43;97949.91;105580;1314;138280;-65
2023/01/05 12:00:49;;;;;;;5.20;3.90;;;;;;;5.48;98.05;97946.34;105780;1314;22406;-64
2023/01/05 12:03:29;;;;;;;5.90;3.70;;;;;;;5.49;98.31;97944.71;105808;1308;22181;-64
2023/01/05 12:05:57;;;;;;;5.50;3.20;;;;;;;5.51;98.11;97942.23;105784;1307;22230;-66
2023/01/05 12:08:30;;;;;;;6.50;3.90;;;;;;;5.52;97.94;97941.11;105643;1314;22151;-65
2023/01/05 12:11:14;;;;;;;4.40;3.00;;;;;;;5.53;98.10;97941.66;106127;1291;138034;-65
2023/01/05 12:14:07;;;;;;;5.60;3.30;;;;;;;5.55;97.89;97939.67;106434;1299;23308;-64
2023/01/05 12:16:44;;;;;;;4.60;3.10;;;;;;;5.58;97.86;97934.02;106118;1292;137991;-64
2023/01/05 12:19:43;;;;;;;5.30;3.00;;;;;;;5.59;97.83;97934.89;106394;1286;22258;-65